OITZ

Zahedan Airport

Airport
ICAO code
OITZ
IATA Code
ZAH
Summary
ICAO Region
MID
ICAO Territory
Location

Zahedan, Sistan and Baluchistan Province

Serving
Zahedan
Elevation
4564 ft
Coordinates
29° 28' 32" N , 60° 54' 2" E
KCC
Metar
Observation
OITZ 070300Z 12010KT 9999 FEW030 OVC070 01/M04 Q1019 A3009
Station
Zanjan
Date/Time
2022-12-07 03:00:00
Wind direction
120°
Wind speed
10 kts
Lowest cloud amount
few clouds
Temperature
1°C
Dew point
-4°C
Humidity
69%
QNH
1019 hPa
Weather condition
n/a

Airport on the eastern side of the city of Zahedan, Iran, close to the Afghan border.

Climatology

Hot Desert climate (Köppen climate classification BWh). Hot summers and cool winters.

Runways

Designator Length Width Surface Rops
12/30 2999 45 ASP No/No

Airport map

Aerial View

SKYbrary Partners:

Safety knowledge contributed by: